空港情報

日本の空港の気象及び、管制情報です。
気象情報はより詳細な情報が取得できる「AVIATION WEATER CENTER」 から取得しているため、VATSIMの気象情報と若干のタイムラグが生じることがあります。

VRCのフィールド設定用空港一覧はこちらをご覧ください。

RJCG Sapporo Control

RJCW / Wakkanai
VMC

NO RADAR

RADIO

08/26 2200x45

民間 civil

9999

190@14KT

29.70

RJCW 280900Z 19014KT 9999 FEW015 17/15 Q1006

RJER / Rishiri

NO RADAR

REMOTE

25/07 1800x45

民間 civil

過去5時間に発表されたMETARがありません。

RJEB / Monbetsu
VMC

NO RADAR

REMOTE

32/14 2000x45

民間 civil

9999

110@4KT

29.79

RJEB 280700Z 11004KT CAVOK 19/17 Q1009

RJCM / Memanbetsu
VMC

NO RADAR

TOWER

36/18 2500x45

民間 civil

9999

200@6KT

29.79

RJCM 281000Z 20006KT 9999 FEW030 16/11 Q1009

RJEC / Asahikawa
VMC

NO RADAR

TOWER

34/16 2500x60

民間 civil

9999

150@4KT

29.79

RJEC 281000Z 15004KT 9999 FEW040 SCT/// 14/11 Q1009

RJCN / Nakashibetsu
VMC

NO RADAR

RADIO

08/26 2000x45

民間 civil

9999

010@2KT

29.82

RJCN 280900Z 01002KT 9999 FEW015 BKN150 15/15 Q1010

RJCK / Kushiro
VMC

NO RADAR

TOWER

17/35 2500x45

民間 civil

9999

310@7KT

29.82

RJCK 281000Z 31007KT 9999 FEW040 13/12 Q1010

RJCO / Sapporo
VMC

RJCO_APP

TOWER

14/32 1500x30

共用 dual

9999

000@2KT

29.82

RJCO 281000Z VRB02KT 9999 NSC 17/13 Q1010

RJCJ / Chitose

RJCC_APP

TOWER

36R/18L 3000x60
36L/18R 2700x45

自衛隊 military

過去5時間に発表されたMETARがありません。

RJCC / NewChitose
VMC

RJCC_APP

TOWER

01L/19R 3000x60
01R/19L 3000x60

民間 civil

9999

140@6KT

29.79

RJCC 281000Z 14006KT 9999 FEW040 16/15 Q1009 RMK 1CU040 A2982

RJCB / Obihiro
VMC

NO RADAR

TOWER

35/17 2500x45

民間 civil

9999

000@1KT

29.82

RJCB 281000Z VRB01KT 9999 FEW040 13/12 Q1010

RJEO / Okushiri

NO RADAR

REMOTE

12/30 1500x45

民間 civil

過去5時間に発表されたMETARがありません。

RJCH / Hakodate
VMC

RJCH_APP

TOWER

12/30 3000x45

民間 civil

9999

020@4KT

29.82

RJCH 281000Z 02004KT 9999 FEW030 17/15 Q1010

RJSA / Aomori
VMC

NO RADAR

TOWER

24/06 3000x60

民間 civil

9999

000@1KT

29.82

RJSA 281000Z VRB01KT 9999 FEW010 13/13 Q1010

RJSO / Ominato

RJSM_APP

TOWER

04/22 600x45

自衛隊 military

過去5時間に発表されたMETARがありません。

RJSM / Misawa
VMC

RJSM_APP

TOWER

10/28 3050x45

共用 dual

9999

210@2KT

29.82

RJSM 281000Z 21002KT 9999 FEW015 18/15 Q1010

RJSH / Hachinohe

RJSM_APP

TOWER

25/07 2250x45

自衛隊 military

過去5時間に発表されたMETARがありません。

RJSK / Akita
VMC

NO RADAR

TOWER

10/28 2500x60

民間 civil

9999

000@1KT

29.82

RJSK 281000Z VRB01KT 9999 FEW020 17/16 Q1010

RJSI / Hanamaki
VMC

NO RADAR

RADIO

20/02 2500x45

民間 civil

9999

050@2KT

29.82

RJSI 281000Z 05002KT 9999 FEW030 SCT100 15/14 Q1010

RJSR / Odate-Noshiro
VMC

NO RADAR

REMOTE

11/29 2000x45

民間 civil

9999

110@2KT

29.82

RJSR 281000Z 11002KT 9999 FEW040 16/16 Q1010

RJTG Tokyo Control

RJSY / Shonai
VMC

NO RADAR

RADIO

09/27 2000x45

民間 civil

9999

170@3KT

29.85

RJSY 281000Z 17003KT 9999 FEW020 17/16 Q1011

RJSC / Yamagata
VMC

NO RADAR

RADIO

01/19 2000x45

民間 civil

9999

000@3KT

29.85

RJSC 281000Z VRB03KT 9999 FEW040 SCT100 18/15 Q1011

RJST / Matsushima

RJSS_APP

TOWER

07/25 2071x46
15/33 1500x46

自衛隊 military

過去5時間に発表されたMETARがありません。

RJSS / Sendai
VMC

RJSS_APP

TOWER

27/09 3000x45
12/30 1200x45

民間 civil

9999

300@3KT

29.82

RJSS 281000Z 30003KT 270V350 9999 FEW020 BKN120 20/17 Q1010

RJSD / Sado

NO RADAR

REMOTE

10/28 890x25

民間 civil

過去5時間に発表されたMETARがありません。

RJSN / Niigata
VMC

RJSN_APP

TOWER

10/28 2500x45
04/22 1314x45

民間 civil

9999

180@5KT

29.85

RJSN 281000Z 18005KT 9999 FEW020 BKN080 20/17 Q1011

RJSF / Fukushima
VMC

NO RADAR

RADIO

01/19 2500x60

民間 civil

9999

360@5KT

29.85

RJSF 281000Z 36005KT 9999 SCT060 17/14 Q1011

RJAH / Ibaraki/Hyakuri
VMC

RJAH_APP

TOWER

03L/21R 2700x45
03R/21L 2700x45

共用 dual

9999

050@4KT

29.79

RJAH 281000Z 05004KT 9999 FEW030 BKN060 BKN090 20/17 Q1009

RJTT / Tokyo
VMC

RJTT_APP

TOWER

34LR/16RL 3000x60
04/22&05/23 2500x60

民間 civil

9999

090@8KT

29.79

RJTT 281000Z 09008KT 9999 BKN060 23/18 Q1009 NOSIG RMK 7SC060 A2982

RJAA / Narita
VMC

RJTT_APP

TOWER

34L/16R 4000x60
34R/16L 2500x60

民間 civil

9999

070@7KT

29.79

RJAA 281000Z 07007KT 030V100 9999 FEW030 BKN/// 21/17 Q1009 BECMG 04007KT RMK 1CU030 A2982

RJTL / Shimofusa

RJTT_APP

TOWER

19/01 2250x45

自衛隊 military

過去5時間に発表されたMETARがありません。

RJTE / Tateyama

RJTT_APP

TOWER

09/27 300x45

自衛隊 military

過去5時間に発表されたMETARがありません。

RJTO / Oshima
VMC

NO RADAR

RADIO

03/21 1800x45

民間 civil

9999

080@3KT

29.76

RJTO 280800Z 08003KT 030V150 9999 FEW030 SCT/// 23/16 Q1008

RJTK / Kisarazu
VMC

NO RADAR

TOWER

02/20 1830x45

自衛隊 military

9999

110@5KT

29.82

RJTK 281007Z 11005KT 9999 FEW030 BKN070 BKN230 22/16 Q1010 RMK 1CU030 6AC070 7CI230 A2983

RJAN / Niijima

NO RADAR

REMOTE

11/29 800x25

自衛隊 military

過去5時間に発表されたMETARがありません。

RJAZ / Kozushima

NO RADAR

REMOTE

11/29 800x25

民間 civil

過去5時間に発表されたMETARがありません。

RJTH / Hachijojima

NO RADAR

RADIO

26/08 2000x45

民間 civil

過去5時間に発表されたMETARがありません。

RJTF / Chofu
VMC

NO RADAR

Flight Service

35/17 800x30

民間 civil

9999

000@2KT

29.76

RJTF 280700Z VRB02KT 9999 FEW030 BKN060 27/12 Q1008

RJTQ / Miyake

NO RADAR

REMOTE

02/20 1200x30

民間 civil

過去5時間に発表されたMETARがありません。

RJTC / Tachikawa
VMC

NO RADAR

TOWER

01/19 900x45

自衛隊 military

9999

040@4KT

29.76

RJTC 280626Z 04004KT 360V070 9999 FEW030 BKN060 BKN230 26/11 Q1008 RMK 1CU030 5SC060 6CI230 A2977

RJTA / Atsugi

NO RADAR

TOWER

01/19 2438x45

自衛隊 military

過去5時間に発表されたMETARがありません。

RJTU / Utsunomiya

RJTY_APP

TOWER

01/19 1700x45

自衛隊 military

過去5時間に発表されたMETARがありません。

RJTJ / Iruma

RJTY_APP

TOWER

17/35 2000x45

自衛隊 military

過去5時間に発表されたMETARがありません。

RJTY / Yokota
VMC

RJTY_APP

TOWER

18/36 3353x60

自衛隊 military

9999

250@3KT

29.84

RJTY 280956Z 25003KT 10SM OVC060 23/14 A2984 RMK AO2A SLP105 T02340135

RJAF / Matsumoto
VMC

NO RADAR

RADIO

18/36 2000x45

民間 civil

9999

330@9KT

29.88

RJAF 280900Z 33009KT 9999 VCSH FEW010 SCT020 BKN040 18/15 Q1012

RJNS / Shizuoka
VMC

NO RADAR

RADIO

30/12 2500x60

民間 civil

9999

240@10KT

29.79

RJNS 281000Z 24010KT 200V270 9999 FEW030 BKN/// 23/20 Q1009

RJNY / Yaizu-Shizuhama
VMC

NO RADAR

TOWER

27/09 1500x45

自衛隊 military

9999

240@9KT

29.76

RJNY 280632Z 24009KT 210V270 9999 FEW020 SCT230 26/18 Q1008 RMK 1CU020 A2977

RJNH / Hamamatsu

RJNH_APP

TOWER

09/27 2550x60

自衛隊 military

過去5時間に発表されたMETARがありません。

RJGG / Chubu
VMC

RJGG_APP

TOWER

36/18 3500x60

民間 civil

9999

320@13KT

29.79

RJGG 281000Z 32013KT 9999 FEW020 SCT070 BKN100 24/19 Q1009 NOSIG

RJNA / Nagoya

RJGG_APP

TOWER

34/16 2740x45

民間 civil

過去5時間に発表されたMETARがありません。

RJNG / Gifu

RJGG_APP

TOWER

28/10 2710x46

自衛隊 military

過去5時間に発表されたMETARがありません。

RJOE / Akeno
VMC

RJOE_APP

TOWER

13/31 500x30
04/22 500x30

自衛隊 military

9999

160@4KT

29.76

RJOE 280639Z 16004KT 140V200 9999 FEW020 SCT050 BKN230 25/21 Q1008 RMK 1CU020 4SC050 6CI230 A2978

RJNK / Komatsu
VMC

RJNK_APP

TOWER

06/24 2700x45

共用 dual

9999

050@7KT

29.85

RJNK 281000Z 05007KT 9999 FEW020 BKN/// 20/16 Q1011

RJNW / Noto
VMC

NO RADAR

RADIO

25/07 2000x45

民間 civil

9999

010@3KT

29.88

RJNW 281000Z 01003KT 340V040 9999 FEW015 BKN/// 17/16 Q1012

RJNT / Toyama
VMC

NO RADAR

TOWER

20/02 2000x45

民間 civil

9999

180@4KT

29.85

RJNT 281000Z 18004KT 140V210 9999 FEW005 SCT020 BKN/// 19/18 Q1011

RJNF / Fukui

NO RADAR

REMOTE

18/36 1200x30

民間 civil

過去5時間に発表されたMETARがありません。

RJBD / Nanki-Shirahama
VMC

NO RADAR

RADIO

15/33 2000x45

民間 civil

9999

120@4KT

29.79

RJBD 281000Z 12004KT 100V170 9999 FEW015 SCT035 BKN/// 23/21 Q1009

RJOY / Yao
VMC

RJBB_APP

TOWER

27/09 1490x45
13/31 1200x30

民間 civil

9999

360@7KT

29.82

RJOY 281000Z 36007KT 330V030 9999 FEW040 BKN100 BKN/// 24/16 Q1010

RJOO / Osaka
VMC

RJBB_APP

TOWER

32L/14R 3000x60
32R/14L 1830x45

民間 civil

9999

330@8KT

29.82

RJOO 281000Z 33008KT 9999 FEW025 SCT040 BKN100 23/16 Q1010 RMK 1CU025 3CU040 5AC100 A2985

RJOB / Okayama
VMC

RJBB_APP

TOWER

07/25 3000x45

民間 civil

9999

360@4KT

29.85

RJOB 281000Z 36004KT 320V040 9999 FEW015 SCT070 BKN100 20/17 Q1011

RJBB / Kansai
VMC

RJBB_APP

TOWER

06R/24L 3500x60
06L/24R 4000x60

民間 civil

9999

050@13KT

29.82

RJBB 281000Z 05013KT 9999 FEW020 BKN100 BKN/// 24/18 Q1010 NOSIG

RJBE / Kobe
VMC

RJBB_APP

TOWER

09/27 2500x60

民間 civil

9999

060@6KT

29.82

RJBE 281000Z 06006KT 9999 FEW025 BKN080 BKN/// 24/18 Q1010

RJBT / Tajima
VMC

NO RADAR

REMOTE

01/19 1200x30

民間 civil

9999

340@3KT

29.85

RJBT 280900Z 34003KT 9999 FEW010 BKN/// 20/18 Q1011

RJOR / Tottori
VMC

NO RADAR

RADIO

10/28 2000x45

民間 civil

9999

110@4KT

29.88

RJOR 281000Z 11004KT 080V140 9999 FEW025 BKN/// 21/17 Q1012

RJNO / Oki

NO RADAR

REMOTE

07/25 2000x45

民間 civil

過去5時間に発表されたMETARがありません。

RJOH / Miho
VMC

RJOH_APP

TOWER

25/07 2500x45

共用 dual

9999

090@6KT

29.85

RJOH 281000Z 09006KT 9999 FEW025 SCT090 BKN/// 22/19 Q1011

RJOC / Izumo
VMC

RJOH_APP

RADIO

07/25 2000x45

共用 dual

9999

050@7KT

29.85

RJOC 281000Z 05007KT 9999 FEW015 SCT090 BKN100 21/18 Q1011

RJDG Fukuoka Control

RJOT / Takamatsu
VMC

RJBB_APP

TOWER

26/08 2500x60

民間 civil

9999

140@3KT

29.85

RJOT 281000Z 14003KT 090V180 9999 FEW030 SCT070 BKN/// 21/19 Q1011

RJOK / Kochi
VMC

RJBB_APP

TOWER

32/14 2500x45

民間 civil

9000

160@10KT

29.79

RJOK 281000Z 16010KT 9000 -SHRA FEW010 FEW025CB SCT030 BKN070 25/22 Q1009

RJOS / Tokushima
VMC

RJOS_APP

TOWER

29/11 2500x45

共用 dual

9999

010@9KT

29.82

RJOS 281000Z 01009KT 9999 FEW025 BKN060 BKN230 24/18 Q1010

RJOA / Hiroshima
VMC

RJOA_APP

TOWER

10/28 3000x60

民間 civil

9999

350@4KT

29.88

RJOA 281000Z 35004KT 290V090 9999 FEW015 SCT035 BKN050 21/18 Q1012

RJBH / Hiroshimanishi

NO RADAR

Flight Service

04/22 1800x45

民間 civil

過去5時間に発表されたMETARがありません。

RJOI / Iwakuni
VMC

RJOI_APP

TOWER

02/20 2440x60

共用 dual

9999

000@0KT

29.84

RJOI 280956Z 00000KT 9999 FEW020 BKN035 BKN050 26/19 A2984 RMK AO2 SLP103 T02560189

RJOM / Matsuyama
VMC

RJOI_APP

TOWER

14/32 2500x45

民間 civil

9999

250@8KT

29.82

RJOM 281000Z 25008KT 9999 FEW020 BKN/// 24/21 Q1010

RJOZ / Ozuki

RJFZ_APP

TOWER

35/17 1201x61
12/30 899x46

自衛隊 military

過去5時間に発表されたMETARがありません。

RJOF / Hofu
VMC

RJFZ_APP

TOWER

30/12 1180x60
01/19 1480x45

自衛隊 military

9999

240@7KT

29.79

RJOF 280633Z 24007KT 210V270 9999 FEW025 SCT070 BKN220 26/20 Q1009 RMK 2CU025 3AC070 A2982

RJDC / Yamaguchi-Ube
VMC

RJFZ_APP

RADIO

07/25 2500x45

民間 civil

9999

350@5KT

29.82

RJDC 281000Z 35005KT 290V040 9999 FEW025 BKN/// 23/18 Q1010

RJFR / Kitakyushu
VMC

RJFZ_APP

TOWER

18/36 2500x60

民間 civil

9999

340@9KT

29.85

RJFR 281000Z 34009KT 9999 FEW020 SCT170 BKN/// 23/18 Q1011

RJFZ / Tsuiki

RJFZ_APP

TOWER

25/07 2399x46

自衛隊 military

過去5時間に発表されたMETARがありません。

RJOW / Iwami
VMC

NO RADAR

REMOTE

11/29 2000x45

民間 civil

9999

040@4KT

29.85

RJOW 281000Z 04004KT 350V100 9999 FEW030 SCT080 BKN/// 22/18 Q1011

RJDT / Tsushima
VMC

NO RADAR

REMOTE

32/14 1900x45

民間 civil

9999

340@3KT

29.88

RJDT 281000Z 34003KT 300V020 9999 FEW020 BKN170 22/19 Q1012

RJFF / Fukuoka
VMC

RJFF_APP

TOWER

16/34 2800x60

民間 civil

9999

340@7KT

29.85

RJFF 281000Z 34007KT 310V020 9999 FEW025 BKN160 BKN180 23/19 Q1011 NOSIG RMK 1CU025 5AC160 6AC180 A2987

RJFS / Saga
VMC

RJFF_APP

RADIO

29/11 2000x45

民間 civil

9999

340@6KT

29.85

RJFS 281000Z 34006KT 9999 FEW040 SCT160 22/18 Q1011

RJFA / Ashiya

RJFF_APP

TOWER

12/30 1640x46

自衛隊 military

過去5時間に発表されたMETARがありません。

RJDB / Iki
VMC

RJFF_APP

REMOTE

20/02 1200x30

民間 civil

9999

030@10KT

29.88

RJDB 281000Z AUTO 03010KT 9999 BKN020 BKN160 OVC180 23/19 Q1012

RJFO / Oita
VMC

RJFO_APP

TOWER

01/19 3000x45

民間 civil

9999

270@4KT

29.82

RJFO 281000Z 27004KT 9999 FEW025 BKN/// 23/19 Q1010

RJFU / Nagasaki
VMC

RJFU_APP

TOWER

32/14 3000x60

民間 civil

9999

360@14KT

29.85

RJFU 281000Z 36014KT 9999 FEW020 BKN160 23/18 Q1011

RJDU / Omura

RJFU_APP

TOWER

18/36 1200x30

自衛隊 military

過去5時間に発表されたMETARがありません。

RJFE / Fukue
VMC

NO RADAR

RADIO

03/21 2000x45

民間 civil

9999

360@5KT

29.85

RJFE 281000Z 36005KT 9999 FEW015 BKN160 22/18 Q1011

RJDO / Ojika

NO RADAR

REMOTE

03/21 800x30

民間 civil

過去5時間に発表されたMETARがありません。

RJDK / Kamigoto

NO RADAR

REMOTE

17/35 800x30

民間 civil

過去5時間に発表されたMETARがありません。

RJDA / Amakusa

NO RADAR

Flight Service

31/13 1000x30

民間 civil

過去5時間に発表されたMETARがありません。

RJFT / Kumamoto
VMC

RJFT_APP

TOWER

07/25 3000x45

民間 civil

9999

330@3KT

29.85

RJFT 281000Z 33003KT 300V360 9999 FEW030 BKN/// 22/19 Q1011

RJFN / Nyutabaru

RJFM_APP

TOWER

28/10 2701x46

自衛隊 military

過去5時間に発表されたMETARがありません。

RJFM / Miyazaki
VMC

RJFM_APP

TOWER

27/09 2500x45

民間 civil

9999

080@6KT

29.82

RJFM 281000Z 08006KT 9999 -SHRA FEW015 BKN023 BKN030 26/22 Q1010

RJFK / Kagoshima
VMC

RJFK_APP

TOWER

34/16 3000x45

民間 civil

9999

330@7KT

29.85

RJFK 281000Z 33007KT 9999 FEW030 21/18 Q1011 RMK 1CU030 A2987

RJFY / Kanoya

RJFY_APP

TOWER

26L/08R 2250x45
26R/08L 1200x40

自衛隊 military

過去5時間に発表されたMETARがありません。

RJFG / Tanegashima
VMC

NO RADAR

RADIO

31/13 2000x45

民間 civil

9999

280@9KT

29.85

RJFG 280900Z 28009KT 9999 FEW010 23/21 Q1011

RJFC / Yakushima

NO RADAR

REMOTE

14/32 1500x45

民間 civil

過去5時間に発表されたMETARがありません。

RJBG Kobe Control

ROAH / Naha
VMC

ROAH_APP

TOWER

36/18 3000x45

共用 dual

9999

060@9KT

29.79

ROAH 281000Z 06009KT 9999 FEW025 29/24 Q1009 RMK 1CU025 A2981

RORA / Aguni

ROAH_APP

REMOTE

01/19 800x25

民間 civil

過去5時間に発表されたMETARがありません。

ROKJ / Kumejima

ROAH_APP

REMOTE

03/21 2000x45

民間 civil

過去5時間に発表されたMETARがありません。

RODN / Kadena
VMC

ROAH_APP

TOWER

05L/23R 3688x91
05R/23L 3688x61

自衛隊 military

9999

010@5KT

29.80

RODN 280956Z AUTO 01005KT 10SM CLR 27/23 A2980 RMK AO2 SLP096 T02710233 $

ROTM / Futenma
VMC

ROAH_APP

TOWER

06/24 2740x45

自衛隊 military

9999

070@6KT

29.79

ROTM 280956Z 07006KT 9999 FEW020 SCT060 BKN150 27/25 A2979 RMK SLP089 T02740250

RORS / Shimojishima
VMC

RORS_APP

TOWER

17/35 3000x60

民間 civil

9999

070@7KT

29.79

RORS 281000Z 07007KT 9999 FEW017 28/24 Q1009

ROMY / Miyako
VMC

RORS_APP

TOWER

04/22 2000x45

民間 civil

9999

070@7KT

29.79

ROMY 281000Z 07007KT 9999 SCT017 27/25 Q1009

ROIG / New Ishigaki
VMC

RORS_APP

TOWER

22/04 2000x45

民間 civil

9999

030@4KT

29.79

ROIG 281000Z 03004KT 9999 FEW015 26/25 Q1009

RORT / Tarama

RORS_APP

REMOTE

36/18 1500x45

民間 civil

過去5時間に発表されたMETARがありません。

RJKA / Amami
VMC

NO RADAR

RADIO

03/21 2000x45

民間 civil

9999

350@5KT

29.82

RJKA 281000Z 35005KT 9999 FEW020 SCT120 26/24 Q1010

RJKI / Kikai
VMC

NO RADAR

REMOTE

07/25 1200x30

民間 civil

9000

020@7KT

29.82

RJKI 281000Z AUTO 02007KT 9000 FEW018 SCT033 28/24 Q1010

RJKN / Tokunoshima
VMC

NO RADAR

REMOTE

19/01 2000x45

民間 civil

9999

040@6KT

29.79

RJKN 280545Z AUTO 04006KT 9999 BKN029 30/25 Q1009 RMK A2981

RJKB / Okierabu

NO RADAR

REMOTE

04/22 1350x45

民間 civil

過去5時間に発表されたMETARがありません。

RORY / Yoron
VMC

NO RADAR

REMOTE

32/14 1320x30

民間 civil

9999

070@4KT

29.82

RORY 281000Z AUTO 07004KT 9999 FEW019 27/24 Q1010

RORK / Kitadaito
VMC

NO RADAR

REMOTE

03/21 1500x45

民間 civil

9999

070@13KT

29.79

RORK 281000Z AUTO 07013KT 9999 FEW019 28/24 Q1009

ROMD / Minami-daito
VMC

NO RADAR

REMOTE

02/20 1500x45

民間 civil

9999

060@8KT

29.79

ROMD 281000Z AUTO 06008KT 020V100 9999 NCD 27/24 Q1009

ROYN / Yonaguni
VMC

NO RADAR

REMOTE

26/08 2000x45

民間 civil

9999

120@3KT

29.79

ROYN 281000Z AUTO 12003KT 9999 FEW014 27/25 Q1009

RORH / Hateruma

NO RADAR

REMOTE

02/20 800x25

民間 civil

過去5時間に発表されたMETARがありません。

ROKR / Kerama

NO RADAR

REMOTE

02/20 800x25

民間 civil

過去5時間に発表されたMETARがありません。